Time;durP1;ratioP1;P1;durP2;ratioP2;P2;SDS_P1;SDS_P2;PMS_P1;PMS_P2;Temp;Humidity;BMP_temperature;BMP_pressure;BME280_temperature;BME280_humidity;BME280_pressure;Samples;Min_cycle;Max_cycle;Signal;HPM_P1;HPM_P2
2021/05/13 00:00:45;;;;;;;8.78;6.58;;;;;;;16.11;67.77;96758.47;1737097;82;21935;-65
2021/05/13 00:03:13;;;;;;;7.60;6.03;;;;;;;16.12;67.72;96756.75;1736999;82;20904;-65
2021/05/13 00:05:39;;;;;;;9.38;6.72;;;;;;;16.12;67.40;96754.59;1737071;81;20991;-66
2021/05/13 00:08:06;;;;;;;12.07;7.80;;;;;;;16.14;67.27;96749.57;1737156;82;20951;-65
2021/05/13 00:10:32;;;;;;;9.93;7.65;;;;;;;16.19;67.08;96751.50;1736990;82;20955;-65
2021/05/13 00:13:00;;;;;;;7.40;5.47;;;;;;;16.27;66.96;96750.56;1737065;82;20955;-65
2021/05/13 00:15:29;;;;;;;8.48;5.10;;;;;;;16.37;66.88;96746.54;1736967;82;20868;-65
2021/05/13 00:17:56;;;;;;;7.15;4.37;;;;;;;16.46;66.80;96743.66;1737069;82;20999;-65
2021/05/13 00:20:31;;;;;;;6.87;4.53;;;;;;;16.53;66.83;96743.28;1736948;82;21014;-66
2021/05/13 00:22:58;;;;;;;5.75;4.15;;;;;;;16.59;66.87;96737.00;1737056;82;21014;-65
2021/05/13 00:25:24;;;;;;;9.05;4.00;;;;;;;16.61;66.39;96734.13;1736947;82;21657;-65
2021/05/13 00:27:50;;;;;;;5.40;4.08;;;;;;;16.64;66.14;96736.16;1737007;82;20990;-64
2021/05/13 00:30:17;;;;;;;7.03;4.60;;;;;;;16.67;65.87;96728.42;1737017;82;21066;-64
2021/05/13 00:32:44;;;;;;;6.25;4.50;;;;;;;16.70;65.76;96726.38;1737092;82;21487;-64
2021/05/13 00:35:15;;;;;;;5.80;4.10;;;;;;;16.71;65.74;96727.38;1737157;82;21019;-64
2021/05/13 00:37:41;;;;;;;6.22;4.87;;;;;;;16.70;65.75;96727.16;1737046;82;21083;-64
2021/05/13 00:40:09;;;;;;;5.78;4.25;;;;;;;16.65;66.21;96723.27;1712036;82;21514;-65
2021/05/13 00:42:34;;;;;;;6.42;4.37;;;;;;;16.67;65.85;96725.11;1737023;82;21030;-65
2021/05/13 00:45:00;;;;;;;7.42;4.40;;;;;;;16.71;65.72;96721.12;1737119;82;20896;-65
2021/05/13 00:47:28;;;;;;;6.45;4.08;;;;;;;16.75;65.71;96724.19;1736998;82;21497;-64
2021/05/13 00:49:54;;;;;;;5.28;4.03;;;;;;;16.78;65.62;96717.20;1737004;82;21121;-65
2021/05/13 00:52:22;;;;;;;8.00;4.83;;;;;;;16.82;65.61;96718.88;1736915;82;21031;-64
2021/05/13 00:54:48;;;;;;;6.47;4.70;;;;;;;16.87;65.43;96715.09;1736867;82;21411;-64
2021/05/13 00:57:14;;;;;;;6.15;4.40;;;;;;;16.85;65.34;96709.98;1737144;82;21091;-64
2021/05/13 00:59:43;;;;;;;7.30;4.80;;;;;;;16.83;65.25;96714.20;1737141;82;20999;-65
2021/05/13 01:02:09;;;;;;;8.10;4.83;;;;;;;16.79;65.68;96714.12;1737127;82;21138;-65
2021/05/13 01:04:35;;;;;;;5.15;4.50;;;;;;;16.82;65.20;96711.24;1736968;82;21038;-65
2021/05/13 01:07:01;;;;;;;8.45;4.92;;;;;;;16.81;65.06;96704.98;1737164;82;20844;-65
2021/05/13 01:09:30;;;;;;;6.05;5.12;;;;;;;16.83;65.01;96699.95;1737087;82;21070;-65
2021/05/13 01:11:58;;;;;;;6.20;5.22;;;;;;;16.83;65.21;96701.89;1736935;82;20919;-65
2021/05/13 01:17:01;;;;;;;8.63;5.20;;;;;;;16.80;65.30;96703.39;1736889;82;21450;-65
2021/05/13 01:19:25;;;;;;;5.60;4.37;;;;;;;16.80;65.83;96702.02;1736572;82;20979;-64
2021/05/13 01:21:51;;;;;;;9.43;6.78;;;;;;;16.83;65.96;96693.10;1737026;82;21434;-64
2021/05/13 01:24:16;;;;;;;10.28;7.55;;;;;;;16.83;65.89;96698.58;1737061;82;20971;-64
2021/05/13 01:26:44;;;;;;;11.40;9.35;;;;;;;16.86;65.78;96694.36;1737164;82;21191;-64
2021/05/13 01:29:12;;;;;;;12.37;9.43;;;;;;;16.91;65.68;96683.14;1737233;82;20924;-64
2021/05/13 01:31:38;;;;;;;9.85;8.43;;;;;;;16.93;65.39;96687.70;1736951;82;21118;-64
2021/05/13 01:34:06;;;;;;;12.35;9.35;;;;;;;16.94;65.27;96689.88;1737023;82;20990;-64
2021/05/13 01:36:34;;;;;;;11.50;7.30;;;;;;;16.97;65.17;96686.41;1737185;81;21050;-64
2021/05/13 01:39:01;;;;;;;8.25;6.00;;;;;;;16.98;65.08;96691.53;1736931;82;21578;-64
2021/05/13 01:41:27;;;;;;;7.72;5.70;;;;;;;16.97;64.93;96689.16;1736974;82;21022;-64
2021/05/13 01:43:53;;;;;;;8.03;6.08;;;;;;;16.95;64.85;96681.30;1736992;82;21031;-64
2021/05/13 01:46:19;;;;;;;7.80;4.85;;;;;;;16.96;64.89;96675.25;1737051;82;20896;-64
2021/05/13 01:48:45;;;;;;;6.95;4.80;;;;;;;16.87;64.89;96673.48;1737060;82;20912;-65
2021/05/13 01:51:11;;;;;;;11.90;7.25;;;;;;;16.83;65.86;96667.12;1736916;81;21782;-64
2021/05/13 01:53:43;;;;;;;11.48;6.95;;;;;;;16.85;65.58;96662.69;1737075;82;21023;-64
2021/05/13 01:56:10;;;;;;;11.28;7.72;;;;;;;16.81;65.98;96661.78;1736840;82;20943;-64
2021/05/13 01:58:36;;;;;;;10.82;8.65;;;;;;;16.84;65.80;96656.42;1736980;82;21050;-64
2021/05/13 02:01:04;;;;;;;13.78;12.25;;;;;;;16.86;65.57;96655.48;1736956;82;21467;-64
2021/05/13 02:03:30;;;;;;;13.03;10.90;;;;;;;16.87;65.70;96652.17;1737244;82;21507;-64
2021/05/13 02:05:56;;;;;;;13.75;9.80;;;;;;;16.89;65.51;96650.67;1737111;82;21069;-65
2021/05/13 02:08:22;;;;;;;10.98;8.78;;;;;;;16.93;65.46;96654.87;1737298;81;20859;-64
2021/05/13 02:10:48;;;;;;;7.33;6.15;;;;;;;16.93;65.32;96652.14;1737048;82;21074;-65
2021/05/13 02:13:14;;;;;;;11.55;5.20;;;;;;;16.91;65.29;96648.94;1737217;82;21405;-64
2021/05/13 02:15:40;;;;;;;7.05;5.08;;;;;;;16.80;65.39;96645.16;1737112;82;21526;-65
2021/05/13 02:18:06;;;;;;;6.03;5.20;;;;;;;16.73;65.40;96637.56;1736979;82;20991;-65
2021/05/13 02:20:32;;;;;;;7.17;5.22;;;;;;;16.73;65.56;96629.36;1737176;82;20912;-65
2021/05/13 02:22:58;;;;;;;6.15;5.17;;;;;;;16.70;65.74;96637.48;1737150;82;20883;-65
2021/05/13 02:25:31;;;;;;;11.53;6.10;;;;;;;16.72;65.88;96627.77;1737181;82;21063;-65
2021/05/13 02:27:56;;;;;;;9.28;5.50;;;;;;;16.69;66.21;96624.96;1736971;82;21599;-64
2021/05/13 02:30:22;;;;;;;10.18;6.35;;;;;;;16.61;66.45;96613.81;1711834;82;20967;-65
2021/05/13 02:32:48;;;;;;;8.00;5.65;;;;;;;16.60;66.52;96612.22;1737286;82;21010;-64
2021/05/13 02:35:14;;;;;;;6.58;4.87;;;;;;;16.58;67.05;96606.89;1737181;82;21446;-64
2021/05/13 02:37:41;;;;;;;9.10;6.78;;;;;;;16.50;67.11;96604.55;1737251;82;21055;-67
2021/05/13 02:40:08;;;;;;;7.45;6.25;;;;;;;16.38;66.90;96601.87;1763554;81;21880;-65
2021/05/13 02:42:34;;;;;;;9.13;6.20;;;;;;;16.28;67.26;96599.09;1766933;81;20895;-66
2021/05/13 02:45:00;;;;;;;9.03;6.10;;;;;;;16.22;67.19;96595.02;1767704;81;20938;-66
2021/05/13 02:47:26;;;;;;;7.87;5.53;;;;;;;16.19;67.26;96598.47;1767406;81;20847;-65
2021/05/13 02:49:52;;;;;;;9.73;5.90;;;;;;;16.18;67.17;96594.15;1767277;81;20910;-66
2021/05/13 02:52:18;;;;;;;8.30;4.97;;;;;;;16.22;67.48;96601.06;1767449;81;21373;-66
2021/05/13 02:54:43;;;;;;;5.85;4.95;;;;;;;16.24;67.36;96595.48;1767567;81;20887;-65
2021/05/13 02:57:10;;;;;;;8.08;6.35;;;;;;;16.30;67.38;96594.64;1749342;81;20912;-66
2021/05/13 03:02:08;;;;;;;8.05;6.03;;;;;;;16.38;67.66;96588.78;1675808;82;21023;-67
2021/05/13 03:04:34;;;;;;;6.97;5.83;;;;;;;16.34;67.93;96586.77;1748275;82;22218;-67
2021/05/13 03:07:00;;;;;;;15.00;6.00;;;;;;;16.34;67.59;96584.61;1748211;81;20880;-68
2021/05/13 03:09:26;;;;;;;11.28;6.90;;;;;;;16.36;67.69;96576.27;1748371;82;20868;-68
2021/05/13 03:11:52;;;;;;;8.88;6.20;;;;;;;16.38;67.39;96579.22;1748141;82;21419;-65
2021/05/13 03:14:18;;;;;;;9.73;5.70;;;;;;;16.42;67.20;96575.44;1748360;82;20885;-65
2021/05/13 03:16:44;;;;;;;9.33;7.25;;;;;;;16.45;67.04;96578.04;1748352;82;20976;-64
2021/05/13 03:19:19;;;;;;;8.98;6.72;;;;;;;16.45;66.86;96572.56;1739664;82;20936;-65
2021/05/13 03:21:44;;;;;;;7.30;6.45;;;;;;;16.46;66.78;96573.58;1705534;83;20973;-64
2021/05/13 03:24:24;;;;;;;11.73;5.58;;;;;;;16.43;66.97;96582.49;1718328;82;21024;-66
2021/05/13 03:29:15;;;;;;;14.70;11.10;;;;;;;16.43;67.06;96577.61;1718312;83;21049;-66
2021/05/13 03:31:41;;;;;;;31.07;25.23;;;;;;;16.41;68.84;96575.77;1718254;83;20974;-66
2021/05/13 03:34:07;;;;;;;45.03;40.43;;;;;;;16.31;68.99;96566.95;1718466;82;20908;-65
2021/05/13 03:36:33;;;;;;;26.82;24.05;;;;;;;16.28;69.75;96573.70;1681574;83;20874;-66
2021/05/13 03:39:00;;;;;;;18.37;14.93;;;;;;;16.28;69.18;96572.34;1712163;83;21535;-65
2021/05/13 03:41:26;;;;;;;15.25;12.65;;;;;;;16.36;68.64;96570.01;1718401;83;21015;-66
2021/05/13 03:43:52;;;;;;;15.50;11.48;;;;;;;16.43;68.27;96574.88;1718317;82;20976;-65
2021/05/13 03:46:18;;;;;;;17.00;13.08;;;;;;;16.43;68.78;96569.41;1718300;83;20943;-65
2021/05/13 03:48:44;;;;;;;16.77;13.65;;;;;;;16.33;70.30;96567.41;1718408;83;20912;-65
2021/05/13 03:51:10;;;;;;;18.17;12.73;;;;;;;16.27;69.66;96560.61;1718442;83;20916;-65
2021/05/13 03:53:36;;;;;;;17.82;13.85;;;;;;;16.28;69.57;96550.47;1718507;83;21127;-66
2021/05/13 03:56:02;;;;;;;19.42;13.58;;;;;;;16.26;69.89;96554.14;1724766;81;20848;-65
2021/05/13 03:58:32;;;;;;;17.27;14.85;;;;;;;16.26;69.85;96550.04;1737190;82;20928;-66
2021/05/13 04:03:21;;;;;;;19.32;14.83;;;;;;;16.33;70.25;96548.28;1725844;82;20978;-66
2021/05/13 04:05:47;;;;;;;19.42;15.20;;;;;;;16.39;70.18;96546.06;1711908;82;21432;-67
2021/05/13 04:08:14;;;;;;;19.07;15.40;;;;;;;16.40;70.39;96540.81;1707549;83;21431;-67
2021/05/13 04:10:41;;;;;;;27.30;15.23;;;;;;;16.43;70.80;96540.70;1720923;82;21010;-67
2021/05/13 04:13:09;;;;;;;16.27;14.58;;;;;;;16.39;71.13;96537.06;1729287;82;21090;-68
2021/05/13 04:15:35;;;;;;;21.90;16.42;;;;;;;16.42;70.60;96535.80;1712702;82;21007;-71
2021/05/13 04:18:02;;;;;;;20.77;16.15;;;;;;;16.30;71.58;96534.51;1737041;82;21138;-71
2021/05/13 04:20:28;;;;;;;21.17;16.50;;;;;;;16.21;72.29;96537.41;1736516;81;20947;-68
2021/05/13 04:22:54;;;;;;;25.65;17.07;;;;;;;16.24;70.97;96537.30;1715940;82;20962;-67
2021/05/13 04:25:20;;;;;;;22.17;16.77;;;;;;;16.30;71.59;96534.51;1734632;82;20891;-68
2021/05/13 04:27:47;;;;;;;21.42;15.25;;;;;;;16.23;72.58;96535.69;1737004;82;21430;-68
2021/05/13 04:30:14;;;;;;;19.15;15.85;;;;;;;16.21;72.02;96535.25;1710235;82;21084;-68
2021/05/13 04:32:40;;;;;;;23.80;16.60;;;;;;;16.19;71.90;96534.25;1706057;84;21004;-68
2021/05/13 04:35:08;;;;;;;21.07;16.10;;;;;;;16.13;73.10;96533.48;1706040;84;20939;-68
2021/05/13 04:37:34;;;;;;;20.62;16.37;;;;;;;16.14;72.27;96531.77;1706118;84;21018;-68
2021/05/13 04:40:00;;;;;;;22.27;18.82;;;;;;;16.09;72.40;96532.05;1706138;84;21464;-68
2021/05/13 04:42:26;;;;;;;25.60;19.75;;;;;;;16.10;71.99;96530.09;1704616;84;21257;-70
2021/05/13 04:44:56;;;;;;;26.60;18.20;;;;;;;16.01;73.12;96523.44;1705886;82;21521;-71
2021/05/13 04:49:54;;;;;;;27.40;18.90;;;;;;;16.04;72.02;96524.09;1736318;82;21510;-71
2021/05/13 04:52:22;;;;;;;25.20;18.30;;;;;;;16.09;71.81;96519.75;1736845;82;20967;-71
2021/05/13 04:54:50;;;;;;;25.88;18.32;;;;;;;16.05;73.82;96523.73;1737087;81;21483;-71
2021/05/13 04:57:17;;;;;;;26.30;17.52;;;;;;;16.03;73.67;96526.60;1736845;82;21038;-71
2021/05/13 04:59:44;;;;;;;25.23;19.52;;;;;;;16.04;72.39;96526.82;1737016;82;21467;-71
2021/05/13 05:02:10;;;;;;;27.90;19.32;;;;;;;15.99;72.90;96523.00;1736952;82;21045;-71
2021/05/13 05:04:36;;;;;;;26.30;20.08;;;;;;;16.00;72.76;96519.91;1737140;82;20951;-71
2021/05/13 05:07:02;;;;;;;24.92;20.80;;;;;;;15.90;74.04;96522.38;1711880;82;21079;-71
2021/05/13 05:09:28;;;;;;;29.25;21.60;;;;;;;15.83;74.84;96522.18;1736865;82;21562;-71
2021/05/13 05:11:54;;;;;;;28.27;21.80;;;;;;;15.75;75.23;96515.16;1737003;82;21681;-71
2021/05/13 05:14:20;;;;;;;28.17;20.60;;;;;;;15.80;73.45;96518.98;1737151;82;20935;-71
2021/05/13 05:16:46;;;;;;;31.97;22.13;;;;;;;15.82;73.09;96514.56;1736908;82;21006;-71
2021/05/13 05:19:12;;;;;;;32.90;22.85;;;;;;;15.88;74.05;96517.23;1737031;82;21869;-71
2021/05/13 05:21:37;;;;;;;31.30;20.57;;;;;;;15.91;74.27;96513.83;1737049;81;20840;-71
2021/05/13 05:24:05;;;;;;;27.62;20.27;;;;;;;15.88;74.05;96512.34;1736885;81;20971;-71
2021/05/13 05:26:30;;;;;;;30.32;21.40;;;;;;;15.86;74.25;96507.81;1711845;82;21447;-71
2021/05/13 05:28:57;;;;;;;30.37;20.85;;;;;;;15.76;75.23;96499.56;1736975;82;21010;-71
2021/05/13 05:31:23;;;;;;;27.77;21.37;;;;;;;15.67;76.42;96501.09;1736977;82;21091;-71
2021/05/13 05:33:49;;;;;;;27.22;21.70;;;;;;;15.64;75.92;96491.45;1736941;82;20974;-71
2021/05/13 05:36:15;;;;;;;32.42;25.27;;;;;;;15.61;76.66;96503.84;1737020;82;20900;-71
2021/05/13 05:38:41;;;;;;;43.98;26.77;;;;;;;15.60;76.82;96504.16;1736998;81;21487;-71
2021/05/13 05:41:06;;;;;;;37.17;25.00;;;;;;;15.62;76.09;96503.27;1736955;82;20903;-71
2021/05/13 05:43:32;;;;;;;32.20;23.30;;;;;;;15.66;75.45;96501.44;1736980;82;21256;-71
2021/05/13 05:45:58;;;;;;;31.52;23.92;;;;;;;15.66;75.74;96504.17;1737036;81;20998;-71
2021/05/13 05:48:24;;;;;;;28.45;21.40;;;;;;;15.72;75.26;96495.39;1736881;82;21403;-71
2021/05/13 05:50:50;;;;;;;37.30;24.10;;;;;;;15.77;74.85;96494.32;1736922;82;20868;-71
2021/05/13 05:53:16;;;;;;;37.93;25.35;;;;;;;15.72;76.54;96495.92;1737126;82;20919;-71
2021/05/13 05:55:42;;;;;;;33.00;24.00;;;;;;;15.80;74.84;96496.34;1737036;81;21120;-71
2021/05/13 05:58:08;;;;;;;27.00;20.27;;;;;;;15.89;75.25;96494.23;1718583;82;20944;-71
2021/05/13 06:00:34;;;;;;;33.53;23.30;;;;;;;15.89;74.96;96492.08;1718345;82;20973;-71
2021/05/13 06:03:00;;;;;;;32.38;21.85;;;;;;;15.96;74.33;96498.52;1718235;83;20941;-71
2021/05/13 06:05:26;;;;;;;33.73;24.98;;;;;;;15.98;75.46;96494.06;1718349;83;20928;-71
2021/05/13 06:07:52;;;;;;;33.30;25.85;;;;;;;15.90;75.62;96499.95;1689700;83;21032;-71
2021/05/13 06:10:18;;;;;;;34.18;25.52;;;;;;;15.84;77.05;96506.01;1718241;82;20936;-71
2021/05/13 06:12:44;;;;;;;33.58;25.30;;;;;;;15.82;75.82;96506.94;1718291;82;21432;-71
2021/05/13 06:15:13;;;;;;;32.98;24.55;;;;;;;15.71;77.10;96514.25;1718326;83;20976;-71
2021/05/13 06:17:39;;;;;;;39.55;24.05;;;;;;;15.64;78.52;96510.56;1718247;82;20936;-71
2021/05/13 06:20:08;;;;;;;35.90;23.95;;;;;;;15.69;76.97;96508.35;1718365;83;21023;-71
2021/05/13 06:22:34;;;;;;;35.03;23.62;;;;;;;15.73;77.22;96505.73;1718310;83;20892;-70
2021/05/13 06:25:00;;;;;;;33.80;24.67;;;;;;;15.62;78.71;96516.34;1718355;82;20988;-71
2021/05/13 06:27:26;;;;;;;37.88;23.73;;;;;;;15.56;78.66;96519.66;1718254;83;20916;-70
2021/05/13 06:29:52;;;;;;;31.97;23.75;;;;;;;15.52;79.35;96513.52;1718204;83;20897;-71
2021/05/13 06:32:18;;;;;;;28.60;23.07;;;;;;;15.51;79.29;96515.23;1718234;82;21274;-71
2021/05/13 06:34:44;;;;;;;35.70;24.65;;;;;;;15.50;79.56;96506.25;1718355;83;20884;-71
2021/05/13 06:37:10;;;;;;;40.10;24.77;;;;;;;15.52;79.86;96504.53;1718179;83;21052;-71
2021/05/13 06:39:36;;;;;;;34.25;24.85;;;;;;;15.48;80.14;96505.81;1718202;83;21558;-71
2021/05/13 06:42:07;;;;;;;35.40;25.00;;;;;;;15.51;79.69;96509.77;1718162;83;20956;-71
2021/05/13 06:44:33;;;;;;;33.63;26.23;;;;;;;15.59;79.14;96508.04;1718357;83;21558;-71
2021/05/13 06:46:59;;;;;;;35.75;26.80;;;;;;;15.68;78.33;96505.97;1718195;83;20908;-71
2021/05/13 06:49:25;;;;;;;36.10;25.02;;;;;;;15.75;78.30;96498.77;1718347;83;21043;-71
2021/05/13 06:51:51;;;;;;;40.48;27.77;;;;;;;15.76;78.84;96502.30;1718377;82;21407;-71
2021/05/13 06:54:17;;;;;;;38.80;27.80;;;;;;;15.82;77.49;96507.73;1718447;83;21120;-70
2021/05/13 06:56:43;;;;;;;39.40;25.35;;;;;;;15.75;78.89;96504.80;1714190;83;21095;-70
2021/05/13 06:59:09;;;;;;;40.45;26.87;;;;;;;15.74;78.30;96505.95;1701565;84;20953;-70
2021/05/13 07:01:36;;;;;;;41.20;25.43;;;;;;;15.78;78.28;96506.25;1701659;84;20858;-70
2021/05/13 07:04:05;;;;;;;38.35;25.68;;;;;;;15.82;78.59;96507.73;1701532;84;21063;-70
2021/05/13 07:06:33;;;;;;;33.30;25.05;;;;;;;15.74;79.99;96505.95;1701659;83;20946;-70
2021/05/13 07:08:59;;;;;;;39.42;27.40;;;;;;;15.63;80.33;96504.28;1701704;84;21191;-71
2021/05/13 07:11:26;;;;;;;34.92;24.55;;;;;;;15.71;79.90;96501.96;1701525;84;20858;-71
2021/05/13 07:13:52;;;;;;;35.08;25.62;;;;;;;15.86;79.03;96498.25;1701461;84;21074;-71
2021/05/13 07:16:18;;;;;;;37.00;25.17;;;;;;;15.99;79.00;96494.31;1701465;83;21561;-71
2021/05/13 07:18:44;;;;;;;40.08;26.73;;;;;;;16.10;78.47;96491.85;1701608;83;20998;-71
2021/05/13 07:21:09;;;;;;;36.77;26.20;;;;;;;15.99;78.75;96491.59;1701468;84;21232;-71
2021/05/13 07:23:36;;;;;;;41.23;30.30;;;;;;;15.95;79.58;96488.75;1701562;84;21358;-71
2021/05/13 07:26:02;;;;;;;36.65;26.40;;;;;;;16.01;78.47;96490.66;1701440;84;21576;-71
2021/05/13 07:28:28;;;;;;;40.43;24.90;;;;;;;16.10;77.85;96496.73;1701579;84;20921;-71
2021/05/13 07:30:54;;;;;;;33.30;24.82;;;;;;;16.27;77.54;96495.02;1701563;84;21501;-71
2021/05/13 07:33:20;;;;;;;34.08;23.90;;;;;;;16.30;77.24;96484.73;1701462;84;21119;-70
2021/05/13 07:35:46;;;;;;;31.20;24.00;;;;;;;16.28;77.17;96483.52;1675419;84;21338;-71
2021/05/13 07:38:12;;;;;;;32.15;23.67;;;;;;;16.25;77.02;96487.75;1701656;83;20870;-70
2021/05/13 07:40:38;;;;;;;32.20;23.77;;;;;;;16.25;76.92;96486.39;1701594;84;21544;-71
2021/05/13 07:43:05;;;;;;;39.45;27.87;;;;;;;16.45;75.96;96484.52;1701504;84;20882;-71
2021/05/13 07:45:33;;;;;;;34.75;25.27;;;;;;;16.43;76.18;96479.19;1701559;84;21594;-71
2021/05/13 07:47:59;;;;;;;34.95;24.35;;;;;;;16.61;75.67;96477.66;1701654;84;21450;-71
2021/05/13 07:50:26;;;;;;;29.65;22.48;;;;;;;16.80;75.11;96479.67;1701545;84;20882;-71
2021/05/13 07:52:52;;;;;;;30.85;22.40;;;;;;;16.74;74.75;96475.62;1701539;83;20878;-71
2021/05/13 07:55:18;;;;;;;31.97;22.65;;;;;;;16.84;74.92;96467.67;1701556;83;21068;-71
2021/05/13 07:57:44;;;;;;;31.50;22.27;;;;;;;16.84;74.45;96470.98;1701460;83;21829;-71
2021/05/13 08:00:12;;;;;;;32.45;21.85;;;;;;;16.93;74.34;96463.37;1701509;84;21057;-70
2021/05/13 08:02:38;;;;;;;38.92;23.12;;;;;;;16.94;74.52;96466.31;1701431;84;21054;-71
2021/05/13 08:05:06;;;;;;;32.28;22.75;;;;;;;17.16;73.75;96464.23;1701891;84;21084;-71
2021/05/13 08:07:32;;;;;;;29.92;23.27;;;;;;;17.33;72.93;96460.84;1701740;84;21394;-71
2021/05/13 08:09:57;;;;;;;32.90;24.85;;;;;;;17.38;72.06;96464.09;1701543;83;21239;-71
2021/05/13 08:12:23;;;;;;;28.67;21.37;;;;;;;17.55;71.76;96460.12;1701504;83;20866;-71
2021/05/13 08:14:49;;;;;;;32.95;23.92;;;;;;;17.68;70.63;96455.25;1701554;84;20902;-71
2021/05/13 08:17:15;;;;;;;32.28;22.00;;;;;;;17.91;70.43;96453.95;1701426;84;21029;-71
2021/05/13 08:19:41;;;;;;;25.75;19.67;;;;;;;18.23;70.10;96456.66;1701561;84;20905;-72
2021/05/13 08:22:07;;;;;;;28.47;21.80;;;;;;;18.22;69.23;96457.02;1701457;84;20958;-71
2021/05/13 08:24:33;;;;;;;28.87;19.75;;;;;;;18.47;68.82;96458.80;1701533;84;20996;-71
2021/05/13 08:27:01;;;;;;;30.60;21.37;;;;;;;18.71;68.69;96448.78;1701502;84;20902;-71
2021/05/13 08:29:28;;;;;;;27.73;20.43;;;;;;;18.74;67.04;96446.69;1701769;84;21576;-71
2021/05/13 08:31:55;;;;;;;30.43;21.25;;;;;;;18.31;67.93;96446.02;1701845;83;20982;-71
2021/05/13 08:34:21;;;;;;;31.80;23.40;;;;;;;18.27;68.51;96449.27;1701412;83;21513;-72
2021/05/13 08:36:46;;;;;;;27.95;21.62;;;;;;;18.47;67.67;96446.45;1701481;83;20946;-71
2021/05/13 08:39:12;;;;;;;26.90;20.15;;;;;;;18.48;67.63;96447.45;1701927;84;20982;-71
2021/05/13 08:41:38;;;;;;;28.10;20.70;;;;;;;18.48;67.44;96449.41;1701593;84;20898;-71
2021/05/13 08:44:07;;;;;;;29.12;19.12;;;;;;;18.25;67.93;96454.91;1701419;83;21025;-71
2021/05/13 08:46:36;;;;;;;27.37;20.75;;;;;;;18.20;68.34;96452.47;1701425;83;21879;-71
2021/05/13 08:49:03;;;;;;;29.65;20.72;;;;;;;18.19;68.29;96454.42;1701555;84;21077;-71
2021/05/13 08:51:31;;;;;;;27.45;20.50;;;;;;;17.91;69.41;96451.99;1701485;84;21502;-70
2021/05/13 08:53:57;;;;;;;37.50;21.60;;;;;;;17.78;70.00;96453.34;1675937;84;21098;-71
2021/05/13 08:56:27;;;;;;;30.08;21.75;;;;;;;17.97;68.98;96461.50;1701536;84;21282;-71
2021/05/13 08:58:54;;;;;;;29.92;19.90;;;;;;;18.01;69.28;96455.49;1715913;83;21432;-70
2021/05/13 09:01:22;;;;;;;25.88;19.35;;;;;;;18.07;69.05;96453.25;1718119;83;20948;-70
2021/05/13 09:03:50;;;;;;;29.20;20.55;;;;;;;18.22;68.78;96450.96;1718331;83;21491;-71
2021/05/13 09:06:30;;;;;;;24.77;18.30;;;;;;;18.56;67.85;96448.35;1718219;83;21012;-70
2021/05/13 09:09:14;;;;;;;27.30;20.20;;;;;;;18.94;65.94;96453.41;1718210;83;21047;-71
2021/05/13 09:12:01;;;;;;;25.05;18.80;;;;;;;19.12;65.20;96444.23;1693830;83;21131;-70
2021/05/13 09:14:30;;;;;;;26.87;17.67;;;;;;;19.52;64.38;96446.88;1714631;83;20964;-71
2021/05/13 09:16:57;;;;;;;25.60;19.73;;;;;;;19.87;63.23;96444.32;1718024;82;21024;-71
2021/05/13 09:19:27;;;;;;;23.38;19.27;;;;;;;19.98;63.47;96443.25;1718262;83;21032;-71
2021/05/13 09:22:00;;;;;;;24.75;18.37;;;;;;;20.39;62.31;96445.16;1717211;83;20972;-71
2021/05/13 09:24:58;;;;;;;26.87;20.35;;;;;;;20.63;61.20;96441.83;1718186;83;21104;-71
2021/05/13 09:27:43;;;;;;;27.40;20.43;;;;;;;19.75;62.94;96444.02;1718259;83;21536;-71
2021/05/13 09:30:21;;;;;;;29.12;22.00;;;;;;;19.83;63.01;96438.02;1718311;83;20948;-70
2021/05/13 09:32:59;;;;;;;25.57;20.08;;;;;;;19.75;63.21;96439.90;1718447;83;20980;-71
2021/05/13 09:35:35;;;;;;;33.08;20.25;;;;;;;21.31;58.79;96427.86;1718583;83;21523;-70
2021/05/13 09:38:06;;;;;;;35.63;19.20;;;;;;;22.59;55.83;96427.27;1718178;83;21785;-71
2021/05/13 09:40:41;;;;;;;29.23;19.50;;;;;;;23.71;53.06;96427.13;1718246;83;20937;-71
2021/05/13 09:43:19;;;;;;;41.80;21.33;;;;;;;22.64;53.55;96429.60;1718264;82;21452;-71
2021/05/13 09:45:56;;;;;;;27.98;21.23;;;;;;;22.16;55.67;96423.14;1718423;83;21044;-70
2021/05/13 09:48:43;;;;;;;25.75;20.12;;;;;;;21.37;57.05;96420.81;1689561;83;21436;-70
2021/05/13 09:51:31;;;;;;;29.60;20.50;;;;;;;21.55;57.16;96420.08;1718380;82;21264;-71
2021/05/13 09:54:19;;;;;;;26.87;18.73;;;;;;;21.80;56.85;96407.73;1718225;83;21075;-71
2021/05/13 09:56:51;;;;;;;25.60;20.12;;;;;;;22.03;56.02;96403.20;1718407;83;26803;-71
2021/05/13 09:59:31;;;;;;;26.70;18.80;;;;;;;21.87;55.19;96402.98;1717516;83;21530;-72
2021/05/13 10:02:04;;;;;;;20.80;17.80;;;;;;;22.64;54.42;96402.59;1718338;83;21103;-72
2021/05/13 10:04:30;;;;;;;22.48;16.42;;;;;;;23.54;51.45;96397.76;1718272;83;21113;-71
2021/05/13 10:06:56;;;;;;;18.40;15.05;;;;;;;24.10;49.03;96395.06;1718225;83;21506;-72
2021/05/13 10:09:22;;;;;;;20.65;16.50;;;;;;;23.32;50.94;96397.67;1718689;83;20996;-73
2021/05/13 10:11:54;;;;;;;20.05;16.57;;;;;;;23.31;50.73;96394.12;1689761;83;21051;-72
2021/05/13 10:14:21;;;;;;;17.52;15.68;;;;;;;23.33;50.61;96390.98;1718287;83;21060;-72
2021/05/13 10:16:49;;;;;;;20.57;16.62;;;;;;;25.21;46.52;96382.30;1718230;83;21870;-72
2021/05/13 10:19:19;;;;;;;18.40;15.68;;;;;;;25.78;46.48;96373.25;1689741;83;21024;-72
2021/05/13 10:21:45;;;;;;;21.45;15.25;;;;;;;26.80;44.01;96370.57;1718225;83;21401;-72
2021/05/13 10:24:13;;;;;;;16.97;14.68;;;;;;;26.78;42.90;96371.00;1718336;83;20941;-72
2021/05/13 10:26:49;;;;;;;20.40;14.83;;;;;;;25.37;45.43;96374.18;1718451;83;21095;-71
2021/05/13 10:29:28;;;;;;;17.10;15.03;;;;;;;24.10;47.35;96373.72;1718353;83;21736;-72
2021/05/13 10:32:19;;;;;;;19.37;15.32;;;;;;;23.23;48.46;96380.14;1718392;83;21480;-70
2021/05/13 10:34:47;;;;;;;23.38;14.65;;;;;;;24.62;46.53;96381.19;1718472;83;20928;-70
2021/05/13 10:37:29;;;;;;;17.90;14.55;;;;;;;23.70;48.18;96382.70;1718547;83;21016;-70
2021/05/13 10:40:21;;;;;;;19.00;16.37;;;;;;;23.22;49.48;96386.08;1718354;83;21503;-72
2021/05/13 10:43:05;;;;;;;17.27;14.98;;;;;;;22.12;51.79;96388.45;1717857;83;21115;-71
2021/05/13 10:45:38;;;;;;;20.60;15.98;;;;;;;21.88;52.94;96381.16;1718304;83;21031;-71
2021/05/13 10:48:15;;;;;;;19.95;16.12;;;;;;;21.43;54.62;96381.84;1718323;83;20888;-71
2021/05/13 10:51:04;;;;;;;18.35;15.68;;;;;;;21.67;53.69;96378.36;1718543;83;21024;-71
2021/05/13 10:53:42;;;;;;;20.50;15.03;;;;;;;21.24;54.73;96378.81;1689918;83;21048;-70
2021/05/13 10:56:15;;;;;;;21.00;15.28;;;;;;;21.04;55.64;96375.61;1718938;83;21047;-71
2021/05/13 10:59:09;;;;;;;17.20;14.30;;;;;;;21.19;55.67;96364.81;1726899;82;20927;-71
2021/05/13 11:01:49;;;;;;;16.85;14.73;;;;;;;21.80;54.61;96369.13;1737015;82;21145;-70
2021/05/13 11:04:28;;;;;;;15.70;13.88;;;;;;;20.81;56.76;96370.38;1736967;82;21571;-72
2021/05/13 11:07:28;;;;;;;21.55;16.05;;;;;;;20.50;57.62;96377.27;1737133;82;20959;-71
2021/05/13 11:09:55;;;;;;;20.25;15.93;;;;;;;20.16;57.72;96376.03;1737008;82;21806;-71
2021/05/13 11:12:27;;;;;;;20.15;15.10;;;;;;;19.99;58.62;96379.43;1737124;82;21098;-71
2021/05/13 11:20:29;;;;;;;23.30;15.98;;;;;;;19.67;59.43;96367.59;1737416;82;21011;-71
2021/05/13 11:23:15;;;;;;;24.25;18.35;;;;;;;19.67;59.14;96366.81;1737311;82;21114;-71
2021/05/13 11:25:50;;;;;;;20.50;16.42;;;;;;;19.67;59.96;96357.98;1736960;82;21460;-70
2021/05/13 11:28:40;;;;;;;20.30;15.93;;;;;;;19.52;61.08;96353.48;1737098;82;21490;-71
2021/05/13 11:31:13;;;;;;;23.15;18.50;;;;;;;19.44;61.66;96357.33;1737093;82;21051;-70
2021/05/13 11:33:57;;;;;;;22.58;17.82;;;;;;;19.22;62.62;96354.92;1737110;82;21003;-71
2021/05/13 11:36:31;;;;;;;26.75;19.35;;;;;;;19.06;63.39;96351.64;1736966;82;21433;-71
2021/05/13 11:39:00;;;;;;;30.90;21.07;;;;;;;18.84;64.30;96361.56;1736974;82;20999;-71
2021/05/13 11:41:26;;;;;;;29.65;21.25;;;;;;;19.07;62.10;96367.73;1736755;82;21058;-71
2021/05/13 11:43:52;;;;;;;30.45;17.80;;;;;;;19.09;62.36;96369.51;1737042;82;21133;-71
2021/05/13 11:46:20;;;;;;;26.33;19.25;;;;;;;19.02;62.80;96364.52;1737532;82;20900;-72